Time;durP1;ratioP1;P1;durP2;ratioP2;P2;SDS_P1;SDS_P2;PMS_P1;PMS_P2;Temp;Humidity;BMP_temperature;BMP_pressure;BME280_temperature;BME280_humidity;BME280_pressure;Samples;Min_cycle;Max_cycle;Signal;HPM_P1;HPM_P2
2023/05/26 00:01:02;;;;;;;30.25;24.63;;;16.80;59.10;;;;;;5000144;28;114699;-79
2023/05/26 00:03:29;;;;;;;28.40;23.70;;;16.80;59.00;;;;;;4987389;28;114451;-78
2023/05/26 00:05:57;;;;;;;32.20;26.00;;;16.80;59.00;;;;;;4987742;28;114554;-79
2023/05/26 00:08:24;;;;;;;30.27;25.08;;;16.90;59.00;;;;;;4986861;28;115353;-79
2023/05/26 00:10:51;;;;;;;28.50;23.73;;;16.90;59.00;;;;;;4986711;28;114719;-78
2023/05/26 00:13:19;;;;;;;31.55;24.75;;;16.90;58.90;;;;;;4969405;28;114269;-79
2023/05/26 00:15:46;;;;;;;34.53;28.13;;;16.90;58.90;;;;;;4988388;28;114301;-79
2023/05/26 00:18:13;;;;;;;30.00;24.17;;;16.90;59.10;;;;;;4986951;28;115061;-79
2023/05/26 00:20:41;;;;;;;30.13;23.83;;;16.90;59.00;;;;;;4987150;28;114683;-79
2023/05/26 00:23:08;;;;;;;29.42;23.38;;;16.90;59.00;;;;;;4987777;28;114323;-79
2023/05/26 00:25:37;;;;;;;29.65;24.38;;;16.90;58.90;;;;;;4968308;28;114299;-79
2023/05/26 00:28:06;;;;;;;33.47;26.17;;;16.90;59.00;;;;;;4986173;28;114966;-79
2023/05/26 00:30:34;;;;;;;34.67;27.25;;;16.90;59.20;;;;;;4986877;28;114773;-79
2023/05/26 00:33:01;;;;;;;27.23;23.02;;;16.90;59.10;;;;;;4986604;28;114448;-78
2023/05/26 00:35:30;;;;;;;30.35;24.88;;;16.90;59.00;;;;;;5003218;28;114510;-78
2023/05/26 00:37:58;;;;;;;29.13;24.27;;;16.90;59.10;;;;;;4987090;28;114957;-78
2023/05/26 00:40:25;;;;;;;32.78;26.25;;;16.90;59.00;;;;;;4986746;28;115970;-78
2023/05/26 00:42:53;;;;;;;31.20;25.65;;;16.90;59.20;;;;;;4986094;28;114329;-79
2023/05/26 00:45:20;;;;;;;29.40;24.65;;;16.90;59.20;;;;;;4986790;28;114526;-78
2023/05/26 00:47:47;;;;;;;32.10;26.65;;;16.90;59.10;;;;;;4980626;28;116158;-79
2023/05/26 00:50:16;;;;;;;34.28;27.60;;;16.80;59.20;;;;;;4967384;28;115204;-79
2023/05/26 00:52:44;;;;;;;30.92;25.50;;;16.90;59.40;;;;;;4985706;28;114314;-78
2023/05/26 00:55:11;;;;;;;34.13;27.42;;;16.80;59.40;;;;;;4985457;28;114743;-79
2023/05/26 00:57:38;;;;;;;33.28;26.17;;;16.80;59.50;;;;;;4968394;28;117724;-77
2023/05/26 01:00:09;;;;;;;31.05;25.90;;;16.80;59.30;;;;;;4984768;28;115183;-79
2023/05/26 01:02:40;;;;;;;35.45;29.02;;;16.80;59.50;;;;;;5002256;28;114155;-78
2023/05/26 01:05:08;;;;;;;28.67;24.17;;;16.80;59.80;;;;;;5002660;28;114428;-78
2023/05/26 01:07:36;;;;;;;28.92;24.85;;;16.80;59.50;;;;;;4985843;28;115406;-78
2023/05/26 01:10:04;;;;;;;31.92;25.67;;;16.80;59.50;;;;;;4984628;28;115003;-78
2023/05/26 01:12:49;;;;;;;33.80;26.35;;;16.80;59.50;;;;;;4986403;28;114330;-78
2023/05/26 01:15:21;;;;;;;40.47;30.48;;;16.90;59.50;;;;;;5001941;28;116369;-78
2023/05/26 01:18:13;;;;;;;31.08;25.15;;;16.80;60.10;;;;;;4984130;28;115172;-77
2023/05/26 01:20:57;;;;;;;30.23;26.13;;;16.80;59.60;;;;;;4985125;28;114666;-78
2023/05/26 01:23:28;;;;;;;30.70;25.17;;;16.80;59.60;;;;;;4984485;28;114412;-79
2023/05/26 01:26:24;;;;;;;30.90;24.65;;;16.80;59.60;;;;;;4967902;28;114328;-78
2023/05/26 01:29:06;;;;;;;29.75;25.10;;;16.80;59.40;;;;;;4983565;28;115209;-78
2023/05/26 01:31:33;;;;;;;30.40;25.08;;;16.80;59.70;;;;;;4985326;28;114961;-78
2023/05/26 01:34:04;;;;;;;28.52;24.30;;;16.80;59.60;;;;;;4984314;28;114277;-78
2023/05/26 01:36:32;;;;;;;29.60;24.42;;;16.80;59.50;;;;;;4968299;28;114291;-78
2023/05/26 01:38:59;;;;;;;28.70;23.00;;;16.80;59.50;;;;;;4984578;28;114944;-78
2023/05/26 01:41:46;;;;;;;29.92;25.27;;;16.80;59.50;;;;;;4967094;28;115427;-78
2023/05/26 01:44:20;;;;;;;32.45;25.55;;;16.90;59.40;;;;;;4968420;28;114266;-78
2023/05/26 01:46:48;;;;;;;28.23;23.45;;;16.80;59.60;;;;;;4981438;28;117511;-78
2023/05/26 01:49:16;;;;;;;30.25;24.15;;;16.90;59.50;;;;;;4985363;28;115531;-78
2023/05/26 01:51:46;;;;;;;30.67;24.95;;;16.80;59.50;;;;;;4983074;28;116627;-78
2023/05/26 01:54:15;;;;;;;30.20;24.63;;;16.80;59.50;;;;;;4967798;28;114692;-78
2023/05/26 01:56:44;;;;;;;30.63;25.23;;;16.80;59.50;;;;;;4966915;28;114650;-78
2023/05/26 01:59:12;;;;;;;29.23;25.55;;;16.80;59.50;;;;;;4999813;28;114895;-78
2023/05/26 02:01:40;;;;;;;27.50;23.20;;;16.80;59.50;;;;;;4980254;28;114698;-78
2023/05/26 02:04:11;;;;;;;27.77;24.15;;;16.80;59.50;;;;;;4966164;28;114580;-78
2023/05/26 02:06:39;;;;;;;34.25;28.35;;;16.80;59.50;;;;;;5000446;28;114511;-78
2023/05/26 02:09:06;;;;;;;30.55;24.17;;;16.80;59.70;;;;;;4965780;28;114920;-78
2023/05/26 02:11:34;;;;;;;30.52;24.77;;;16.80;59.60;;;;;;4999667;28;114671;-78
2023/05/26 02:14:02;;;;;;;30.00;25.23;;;16.80;59.60;;;;;;4967000;28;115522;-77
2023/05/26 02:16:29;;;;;;;31.25;25.67;;;16.70;59.70;;;;;;5000407;28;114461;-78
2023/05/26 02:18:57;;;;;;;34.55;28.85;;;16.80;59.70;;;;;;4982481;28;115240;-77
2023/05/26 02:21:25;;;;;;;36.53;30.00;;;16.80;59.80;;;;;;4999547;28;115887;-78
2023/05/26 02:23:52;;;;;;;33.10;25.98;;;16.70;59.90;;;;;;4983543;28;117063;-77
2023/05/26 02:26:19;;;;;;;34.35;27.40;;;16.70;60.00;;;;;;4983666;28;114675;-78
2023/05/26 02:28:49;;;;;;;31.67;27.48;;;16.70;60.10;;;;;;4982821;28;115499;-78
2023/05/26 02:31:16;;;;;;;29.70;24.50;;;16.70;60.00;;;;;;4966618;28;115160;-78
2023/05/26 02:33:43;;;;;;;33.05;26.58;;;16.70;59.90;;;;;;4984040;28;115096;-79
2023/05/26 02:36:11;;;;;;;29.98;24.13;;;16.70;59.90;;;;;;4985753;28;114132;-78
2023/05/26 02:38:38;;;;;;;29.90;24.73;;;16.70;59.90;;;;;;4999610;28;114803;-77
2023/05/26 02:41:07;;;;;;;30.63;23.83;;;16.70;59.90;;;;;;4984926;28;114643;-78
2023/05/26 02:43:34;;;;;;;30.90;24.75;;;16.70;59.80;;;;;;4985780;28;114235;-78
2023/05/26 02:46:02;;;;;;;29.50;23.85;;;16.80;59.80;;;;;;4985799;28;114002;-78
2023/05/26 02:48:29;;;;;;;30.05;24.25;;;16.80;59.80;;;;;;4950917;28;118322;-78
2023/05/26 02:50:59;;;;;;;31.65;23.52;;;16.80;59.80;;;;;;4983054;28;114636;-78
2023/05/26 02:53:26;;;;;;;38.83;30.98;;;16.70;59.80;;;;;;4983948;28;114420;-78
2023/05/26 02:55:53;;;;;;;31.17;25.52;;;16.80;60.10;;;;;;4984298;28;115718;-78
2023/05/26 02:58:21;;;;;;;35.58;28.17;;;16.70;59.90;;;;;;4985006;28;115040;-78
2023/05/26 03:00:48;;;;;;;32.95;24.92;;;16.80;59.90;;;;;;4983545;28;115254;-78
2023/05/26 03:03:15;;;;;;;32.45;26.13;;;16.80;59.90;;;;;;4984848;28;119080;-77
2023/05/26 03:05:43;;;;;;;32.35;26.42;;;16.80;59.90;;;;;;5000691;28;114215;-77
2023/05/26 03:08:10;;;;;;;32.45;25.92;;;16.80;59.90;;;;;;4983585;28;117213;-77
2023/05/26 03:10:39;;;;;;;30.20;24.50;;;16.80;59.80;;;;;;4983200;28;114945;-77
2023/05/26 03:13:07;;;;;;;30.45;25.15;;;16.80;59.80;;;;;;4968575;28;115619;-78
2023/05/26 03:15:35;;;;;;;33.85;27.02;;;16.80;59.80;;;;;;4967870;28;114539;-78
2023/05/26 03:18:06;;;;;;;32.35;24.95;;;16.80;59.80;;;;;;4979260;28;116694;-77
2023/05/26 03:20:34;;;;;;;31.10;24.65;;;16.80;59.80;;;;;;4999148;28;115269;-77
2023/05/26 03:23:01;;;;;;;32.67;25.42;;;16.80;59.70;;;;;;4963879;28;114367;-78
2023/05/26 03:25:29;;;;;;;31.83;24.98;;;16.80;59.70;;;;;;4983490;28;114201;-78
2023/05/26 03:27:56;;;;;;;29.30;25.00;;;16.80;59.70;;;;;;4982431;28;114937;-78
2023/05/26 03:30:24;;;;;;;30.63;24.85;;;16.80;59.70;;;;;;5002704;28;114837;-78
2023/05/26 03:32:51;;;;;;;29.77;24.40;;;16.80;59.70;;;;;;4986541;28;114301;-78
2023/05/26 03:35:21;;;;;;;29.88;25.35;;;16.80;59.60;;;;;;5003840;28;114208;-77
2023/05/26 03:37:49;;;;;;;26.95;22.92;;;16.80;59.60;;;;;;5002191;28;115317;-77
2023/05/26 03:40:17;;;;;;;32.83;26.40;;;16.80;59.60;;;;;;4986962;28;115720;-77
2023/05/26 03:42:44;;;;;;;29.42;25.35;;;16.80;59.60;;;;;;4985973;28;114468;-77
2023/05/26 03:45:13;;;;;;;31.80;25.48;;;16.80;59.60;;;;;;4969096;28;114420;-77
2023/05/26 03:47:41;;;;;;;29.98;24.98;;;16.80;59.60;;;;;;5002193;28;114927;-77
2023/05/26 03:50:08;;;;;;;35.30;26.70;;;16.80;59.70;;;;;;4952567;28;116628;-77
2023/05/26 03:52:37;;;;;;;30.92;25.40;;;16.90;59.60;;;;;;4985797;28;118429;-77
2023/05/26 03:55:09;;;;;;;31.90;26.17;;;16.90;59.60;;;;;;4970407;28;114360;-77
2023/05/26 03:57:38;;;;;;;30.48;24.65;;;16.90;59.60;;;;;;4985343;28;115177;-77
2023/05/26 04:00:07;;;;;;;36.53;29.13;;;16.80;59.60;;;;;;5003063;28;114481;-77
2023/05/26 04:02:43;;;;;;;33.15;26.77;;;16.80;59.80;;;;;;4987376;28;114251;-76
2023/05/26 04:05:12;;;;;;;35.95;27.58;;;16.80;59.70;;;;;;4982624;28;114345;-77
2023/05/26 04:07:39;;;;;;;34.25;28.00;;;16.80;59.70;;;;;;4978710;28;114966;-77
2023/05/26 04:10:06;;;;;;;35.22;26.77;;;16.80;59.60;;;;;;4966912;28;115233;-77
2023/05/26 04:12:35;;;;;;;43.95;31.33;;;16.90;59.60;;;;;;4965923;28;114176;-77
2023/05/26 04:15:02;;;;;;;33.58;28.73;;;16.90;59.70;;;;;;4977664;28;114325;-77
2023/05/26 04:17:29;;;;;;;37.70;29.42;;;16.90;59.50;;;;;;4984988;28;115517;-77
2023/05/26 04:19:57;;;;;;;37.28;29.48;;;16.90;59.50;;;;;;4967866;28;115806;-77
2023/05/26 04:22:24;;;;;;;37.33;30.30;;;16.90;59.70;;;;;;4966340;28;114221;-77
2023/05/26 04:24:51;;;;;;;36.65;28.25;;;16.90;59.70;;;;;;4986338;28;114327;-78
2023/05/26 04:27:28;;;;;;;43.63;34.72;;;17.00;59.60;;;;;;5000936;28;114917;-78
2023/05/26 04:30:16;;;;;;;36.50;29.08;;;16.90;60.10;;;;;;5001643;28;114689;-77
2023/05/26 04:33:05;;;;;;;32.53;27.08;;;16.90;59.70;;;;;;4985301;28;114424;-78
2023/05/26 04:35:54;;;;;;;35.45;28.40;;;16.90;59.70;;;;;;4970841;28;114470;-79
2023/05/26 04:38:22;;;;;;;37.40;29.83;;;16.90;59.80;;;;;;4985862;28;114942;-79
2023/05/26 04:40:49;;;;;;;33.83;27.50;;;16.90;59.90;;;;;;4965084;28;114644;-79
2023/05/26 04:43:20;;;;;;;36.28;29.40;;;16.90;59.70;;;;;;4946926;28;114330;-77
2023/05/26 04:45:47;;;;;;;33.65;28.33;;;16.90;59.80;;;;;;4985113;28;114613;-77
2023/05/26 04:48:15;;;;;;;41.65;31.48;;;16.90;59.70;;;;;;4984823;28;115024;-77
2023/05/26 04:50:42;;;;;;;41.75;32.78;;;17.00;59.90;;;;;;4987812;28;115160;-78
2023/05/26 04:53:10;;;;;;;35.60;28.65;;;16.90;60.00;;;;;;5002809;28;114200;-78
2023/05/26 04:55:39;;;;;;;32.85;28.30;;;17.00;59.80;;;;;;4985883;28;114366;-78
2023/05/26 04:58:08;;;;;;;39.13;31.23;;;17.00;59.90;;;;;;4983789;28;117250;-77
2023/05/26 05:00:37;;;;;;;39.20;32.10;;;17.00;60.00;;;;;;4984475;28;114625;-77
2023/05/26 05:03:42;;;;;;;35.13;28.17;;;17.00;60.10;;;;;;4945282;28;114657;-77
2023/05/26 05:06:17;;;;;;;38.85;30.95;;;16.90;59.90;;;;;;4964129;28;114676;-79
2023/05/26 05:08:45;;;;;;;35.10;28.15;;;16.90;60.10;;;;;;5001835;28;114887;-77
2023/05/26 05:11:12;;;;;;;32.97;26.80;;;17.00;59.90;;;;;;4985851;28;114939;-78
2023/05/26 05:13:39;;;;;;;32.85;25.25;;;17.00;59.80;;;;;;4984843;28;114362;-77
2023/05/26 05:16:07;;;;;;;44.75;35.22;;;17.00;59.70;;;;;;4985825;28;114407;-78
2023/05/26 05:18:34;;;;;;;37.92;29.83;;;17.00;60.00;;;;;;5001501;28;114930;-78
2023/05/26 05:21:02;;;;;;;37.50;29.08;;;17.00;59.80;;;;;;4984095;28;114659;-78
2023/05/26 05:23:34;;;;;;;33.15;26.95;;;17.10;59.90;;;;;;5001273;28;114519;-78
2023/05/26 05:26:03;;;;;;;38.85;28.10;;;17.10;59.60;;;;;;4985129;28;114240;-78
2023/05/26 05:28:34;;;;;;;37.67;29.17;;;17.10;59.70;;;;;;4983674;28;115093;-76
2023/05/26 05:31:08;;;;;;;40.22;28.27;;;17.10;59.70;;;;;;4983688;28;114588;-77
2023/05/26 05:33:39;;;;;;;38.20;29.85;;;17.10;59.80;;;;;;4967994;28;114351;-77
2023/05/26 05:36:07;;;;;;;33.53;27.63;;;17.10;59.90;;;;;;4983920;28;114719;-77
2023/05/26 05:38:34;;;;;;;38.58;30.02;;;17.10;59.60;;;;;;4972192;28;114941;-80
2023/05/26 05:41:02;;;;;;;33.45;26.02;;;17.10;59.70;;;;;;4966742;28;114700;-77
2023/05/26 05:43:30;;;;;;;35.28;29.05;;;17.00;59.70;;;;;;5003599;28;114485;-77
2023/05/26 05:46:00;;;;;;;30.88;24.35;;;17.00;59.80;;;;;;5019813;28;114164;-78
2023/05/26 05:48:57;;;;;;;33.55;24.85;;;17.00;59.70;;;;;;4989608;28;117447;-78
2023/05/26 05:51:31;;;;;;;35.03;25.85;;;17.00;59.80;;;;;;4996058;28;114705;-77
2023/05/26 05:53:59;;;;;;;32.45;25.58;;;17.00;59.70;;;;;;5008607;28;114766;-76
2023/05/26 05:56:28;;;;;;;29.50;25.35;;;16.90;59.70;;;;;;5004980;28;114634;-77
2023/05/26 05:58:56;;;;;;;34.35;27.42;;;16.90;59.80;;;;;;5019268;28;114910;-78
2023/05/26 06:01:23;;;;;;;31.58;25.38;;;16.90;59.70;;;;;;5003265;28;114763;-77
2023/05/26 06:03:52;;;;;;;35.55;29.45;;;16.90;59.80;;;;;;5003400;28;116166;-77
2023/05/26 06:06:20;;;;;;;34.28;26.27;;;16.90;59.80;;;;;;4970977;28;118274;-78
2023/05/26 06:08:47;;;;;;;29.80;24.08;;;16.90;59.70;;;;;;4985737;28;117398;-77
2023/05/26 06:11:15;;;;;;;34.13;25.58;;;16.90;59.70;;;;;;4986132;28;116281;-77
2023/05/26 06:13:44;;;;;;;28.63;23.00;;;16.90;59.60;;;;;;5019507;28;114579;-78
2023/05/26 06:16:13;;;;;;;31.20;24.30;;;16.90;59.60;;;;;;4986710;28;115604;-78
2023/05/26 06:18:40;;;;;;;31.65;24.52;;;17.00;59.50;;;;;;5002727;28;114790;-77
2023/05/26 06:21:07;;;;;;;29.27;22.55;;;17.10;59.40;;;;;;5019521;28;115397;-78
2023/05/26 06:23:35;;;;;;;27.35;22.30;;;17.10;59.20;;;;;;4997498;28;114578;-78
2023/05/26 06:26:03;;;;;;;30.42;22.83;;;17.20;59.00;;;;;;4983453;28;114464;-78
2023/05/26 06:28:30;;;;;;;33.15;25.85;;;17.30;58.80;;;;;;4958552;28;116516;-77
2023/05/26 06:30:58;;;;;;;26.73;22.40;;;17.20;58.40;;;;;;4982021;28;114805;-78
2023/05/26 06:33:38;;;;;;;26.33;21.45;;;17.10;58.60;;;;;;4986861;28;114664;-78
2023/05/26 06:36:06;;;;;;;30.27;23.98;;;17.20;58.90;;;;;;4969135;28;116257;-78
2023/05/26 06:38:35;;;;;;;34.72;25.60;;;17.20;58.90;;;;;;4985003;28;115506;-78
2023/05/26 06:41:06;;;;;;;27.08;21.50;;;17.20;58.90;;;;;;4994101;28;114652;-78
2023/05/26 06:43:35;;;;;;;26.15;22.45;;;17.20;58.80;;;;;;4998018;28;114581;-78
2023/05/26 06:46:04;;;;;;;23.85;20.27;;;17.20;58.60;;;;;;4985400;28;114381;-78
2023/05/26 06:48:37;;;;;;;31.27;23.58;;;17.30;58.60;;;;;;4980629;28;115540;-78
2023/05/26 06:51:16;;;;;;;29.80;23.30;;;17.30;58.50;;;;;;4988375;28;115087;-78
2023/05/26 06:53:47;;;;;;;29.67;22.48;;;17.30;58.50;;;;;;4990664;28;114409;-78
2023/05/26 06:56:14;;;;;;;28.60;23.48;;;17.30;58.60;;;;;;4977125;28;114506;-79
2023/05/26 06:58:41;;;;;;;33.92;25.70;;;17.40;58.50;;;;;;4988167;28;115611;-77
2023/05/26 07:01:08;;;;;;;34.70;27.17;;;17.30;58.40;;;;;;4978260;28;114787;-78
2023/05/26 07:03:39;;;;;;;33.28;25.15;;;17.30;58.40;;;;;;4976990;28;114550;-76
2023/05/26 07:06:07;;;;;;;39.95;31.60;;;17.20;58.50;;;;;;4976770;28;114426;-78
2023/05/26 07:08:37;;;;;;;36.22;26.88;;;17.20;58.70;;;;;;4978264;28;114910;-77
2023/05/26 07:11:21;;;;;;;35.30;25.40;;;17.10;59.20;;;;;;4956905;28;114780;-77
2023/05/26 07:13:52;;;;;;;32.63;24.75;;;17.00;59.20;;;;;;4990384;28;114578;-78
2023/05/26 07:16:21;;;;;;;33.63;26.23;;;17.00;59.10;;;;;;4980283;28;114750;-80
2023/05/26 07:18:53;;;;;;;33.45;26.23;;;17.00;59.30;;;;;;4955871;28;117709;-78
2023/05/26 07:21:29;;;;;;;36.67;25.80;;;16.90;59.40;;;;;;4959085;28;117645;-77
2023/05/26 07:23:59;;;;;;;28.63;22.83;;;16.80;59.50;;;;;;5003713;28;114362;-79
2023/05/26 07:26:27;;;;;;;32.45;24.80;;;16.80;59.50;;;;;;5004250;28;114353;-78
2023/05/26 07:28:54;;;;;;;31.42;23.55;;;16.80;59.70;;;;;;5003526;28;114798;-77
2023/05/26 07:31:24;;;;;;;25.80;20.27;;;16.70;59.60;;;;;;5006416;28;114888;-77
2023/05/26 07:33:54;;;;;;;29.40;23.83;;;16.80;59.70;;;;;;4990651;28;114332;-78
2023/05/26 07:36:21;;;;;;;35.17;28.52;;;16.80;59.80;;;;;;4991149;28;116021;-79
2023/05/26 07:38:48;;;;;;;36.05;25.45;;;16.70;59.90;;;;;;4985291;28;115346;-78
2023/05/26 07:41:15;;;;;;;25.55;22.23;;;16.70;60.10;;;;;;5007846;28;116215;-78
2023/05/26 07:43:42;;;;;;;24.73;20.85;;;16.70;60.10;;;;;;4991168;28;114307;-78
2023/05/26 07:46:09;;;;;;;35.20;27.25;;;16.70;60.10;;;;;;4987270;28;114905;-78
2023/05/26 07:48:42;;;;;;;34.88;27.98;;;16.80;60.10;;;;;;5002147;28;114518;-78
2023/05/26 07:51:09;;;;;;;27.95;23.40;;;16.80;59.90;;;;;;5003624;28;114717;-78
2023/05/26 07:53:36;;;;;;;35.88;27.33;;;16.70;59.80;;;;;;4988378;28;114497;-78
2023/05/26 07:56:03;;;;;;;33.00;27.75;;;16.80;59.80;;;;;;4988809;28;114038;-78
2023/05/26 07:58:31;;;;;;;30.00;23.63;;;16.70;59.90;;;;;;4987162;28;115111;-78
2023/05/26 08:00:58;;;;;;;30.27;23.75;;;16.70;60.10;;;;;;4987819;28;114724;-77
2023/05/26 08:03:25;;;;;;;28.90;23.73;;;16.70;60.30;;;;;;4988315;28;114558;-78
2023/05/26 08:05:53;;;;;;;26.15;22.08;;;16.60;60.30;;;;;;5010014;28;116080;-77
2023/05/26 08:08:20;;;;;;;30.67;23.60;;;16.60;60.30;;;;;;4992373;28;115100;-77
2023/05/26 08:10:48;;;;;;;33.22;27.80;;;16.70;60.50;;;;;;4986784;28;116323;-78
2023/05/26 08:13:15;;;;;;;31.50;26.20;;;16.70;60.40;;;;;;4986531;28;114606;-77
2023/05/26 08:15:42;;;;;;;26.83;22.60;;;16.70;60.70;;;;;;4981578;28;114379;-79
2023/05/26 08:18:10;;;;;;;26.40;20.55;;;16.70;60.50;;;;;;4986255;28;115467;-78
2023/05/26 08:20:38;;;;;;;26.85;21.95;;;16.80;60.10;;;;;;4986420;28;114606;-77
2023/05/26 08:23:05;;;;;;;25.52;20.45;;;16.90;59.80;;;;;;4983584;28;114363;-78
2023/05/26 08:25:32;;;;;;;23.50;19.33;;;17.00;59.80;;;;;;4987750;28;115093;-78
2023/05/26 08:27:59;;;;;;;27.80;18.45;;;17.00;59.60;;;;;;4984921;28;117720;-78
2023/05/26 08:30:27;;;;;;;27.60;20.95;;;17.10;59.40;;;;;;4987023;28;114747;-77
2023/05/26 08:32:54;;;;;;;26.23;20.48;;;17.20;59.40;;;;;;4986765;28;114400;-77
2023/05/26 08:35:21;;;;;;;27.05;21.10;;;17.30;59.10;;;;;;4989329;28;114150;-78
2023/05/26 08:37:48;;;;;;;32.40;23.77;;;17.30;59.00;;;;;;5006349;28;117434;-78
2023/05/26 08:40:15;;;;;;;30.33;23.45;;;17.30;59.40;;;;;;4998954;28;115092;-77
2023/05/26 08:42:45;;;;;;;24.10;19.15;;;17.40;59.10;;;;;;4987230;28;115925;-78
2023/05/26 08:45:12;;;;;;;27.85;21.85;;;17.40;58.80;;;;;;5008675;28;114158;-77
2023/05/26 08:47:40;;;;;;;31.52;24.90;;;17.50;59.20;;;;;;5007953;28;115385;-77
2023/05/26 08:50:08;;;;;;;28.52;22.42;;;17.60;59.00;;;;;;4993156;28;114605;-77
2023/05/26 08:52:36;;;;;;;21.73;17.58;;;17.60;59.10;;;;;;4999138;28;114711;-77
2023/05/26 08:55:05;;;;;;;31.73;23.65;;;17.60;58.40;;;;;;5023599;28;114301;-77
2023/05/26 08:57:33;;;;;;;30.23;23.05;;;17.70;59.30;;;;;;4985005;28;115143;-77
2023/05/26 09:00:03;;;;;;;29.92;23.17;;;17.70;59.10;;;;;;4981677;28;114749;-77
2023/05/26 09:02:31;;;;;;;35.60;27.65;;;17.80;59.20;;;;;;4959073;28;114252;-78
2023/05/26 09:04:59;;;;;;;29.05;24.95;;;17.80;59.20;;;;;;4971223;28;114715;-77
2023/05/26 09:07:26;;;;;;;31.10;24.55;;;17.80;58.80;;;;;;4981203;28;115833;-80
2023/05/26 09:10:20;;;;;;;26.55;21.95;;;17.80;58.80;;;;;;5002705;28;114521;-78
2023/05/26 09:12:48;;;;;;;37.80;29.58;;;17.80;57.80;;;;;;5001954;28;114418;-78
2023/05/26 09:15:20;;;;;;;28.55;21.60;;;17.80;58.00;;;;;;4986781;28;115389;-78
2023/05/26 09:17:48;;;;;;;31.58;24.73;;;17.80;57.90;;;;;;4985729;28;114839;-78
2023/05/26 09:20:16;;;;;;;36.17;29.33;;;17.80;57.70;;;;;;5016403;28;114721;-78
2023/05/26 09:22:44;;;;;;;34.38;23.70;;;17.80;57.90;;;;;;5008579;28;114197;-78
2023/05/26 09:25:11;;;;;;;28.02;22.48;;;17.80;57.70;;;;;;4991051;28;115591;-78
2023/05/26 09:27:38;;;;;;;26.85;22.60;;;17.90;57.70;;;;;;4985491;28;114920;-78
2023/05/26 09:30:06;;;;;;;30.00;23.50;;;17.90;57.70;;;;;;4988432;28;114193;-78
2023/05/26 09:32:34;;;;;;;24.75;21.15;;;18.00;57.70;;;;;;4988803;28;114355;-78
2023/05/26 09:35:03;;;;;;;22.15;17.55;;;18.10;58.10;;;;;;4985940;28;114576;-77
2023/05/26 09:37:32;;;;;;;30.77;25.30;;;18.20;57.40;;;;;;4987063;28;114837;-77
2023/05/26 09:40:17;;;;;;;28.67;24.55;;;18.30;58.30;;;;;;4986208;28;114826;-77
2023/05/26 09:42:52;;;;;;;27.05;23.50;;;18.40;57.70;;;;;;5012302;28;114336;-78
2023/05/26 09:45:19;;;;;;;;;;;18.50;58.10;;;;;;4988906;28;114154;-78
2023/05/26 09:47:51;;;;;;;25.50;21.52;;;18.60;58.10;;;;;;4988854;28;115356;-78
2023/05/26 09:50:19;;;;;;;28.60;21.98;;;18.70;57.70;;;;;;4980170;28;114753;-77
2023/05/26 09:52:46;;;;;;;29.02;21.98;;;18.70;57.50;;;;;;4982501;28;114234;-77
2023/05/26 09:55:13;;;;;;;26.48;21.98;;;18.80;57.20;;;;;;5001762;28;116121;-77
2023/05/26 09:57:40;;;;;;;26.38;22.00;;;18.80;56.90;;;;;;5008053;28;114887;-78
2023/05/26 10:00:09;;;;;;;23.45;18.90;;;18.80;57.00;;;;;;5007423;28;114632;-78
2023/05/26 10:02:37;;;;;;;26.20;20.98;;;18.80;56.50;;;;;;4984700;28;114186;-78
2023/05/26 10:05:05;;;;;;;24.48;19.80;;;18.80;57.10;;;;;;4984463;28;114411;-78
2023/05/26 10:07:33;;;;;;;30.77;21.70;;;18.80;57.10;;;;;;4982519;28;115012;-78
2023/05/26 10:10:01;;;;;;;25.25;22.50;;;18.80;57.50;;;;;;5022881;28;114990;-77
2023/05/26 10:12:32;;;;;;;28.88;23.55;;;18.80;56.90;;;;;;5013067;28;114277;-77
2023/05/26 10:14:59;;;;;;;26.52;21.05;;;18.80;57.50;;;;;;4987644;28;114466;-77
2023/05/26 10:17:27;;;;;;;27.08;23.17;;;18.80;57.40;;;;;;4985589;28;115516;-78
2023/05/26 10:19:55;;;;;;;28.67;24.10;;;18.70;57.90;;;;;;4981757;28;114577;-77
2023/05/26 10:22:30;;;;;;;34.22;25.73;;;18.70;58.00;;;;;;4984433;28;114198;-77
2023/05/26 10:25:12;;;;;;;24.63;19.17;;;18.80;58.30;;;;;;4962044;28;114487;-77
2023/05/26 10:28:09;;;;;;;29.60;23.70;;;18.80;57.30;;;;;;4969990;28;114953;-78
2023/05/26 10:30:37;;;;;;;31.90;27.90;;;18.80;57.10;;;;;;4984383;28;114849;-78
2023/05/26 10:33:14;;;;;;;31.83;26.85;;;18.80;58.10;;;;;;4978244;28;114352;-77
2023/05/26 10:35:56;;;;;;;33.17;26.58;;;18.90;58.40;;;;;;4982736;28;114361;-77
2023/05/26 10:38:30;;;;;;;31.52;27.83;;;18.90;58.10;;;;;;4984498;28;119530;-78
2023/05/26 10:40:57;;;;;;;29.80;25.85;;;18.90;58.10;;;;;;4981441;28;114815;-76
2023/05/26 10:43:25;;;;;;;34.03;30.17;;;18.80;58.20;;;;;;4984612;28;114374;-79
2023/05/26 10:46:02;;;;;;;27.63;24.33;;;18.80;58.50;;;;;;4997875;28;114108;-79
2023/05/26 10:48:40;;;;;;;32.97;29.48;;;18.90;58.40;;;;;;5003733;28;115076;-77
2023/05/26 10:51:09;;;;;;;31.00;27.83;;;18.90;58.60;;;;;;5009930;28;115237;-78
2023/05/26 10:53:46;;;;;;;31.60;27.95;;;19.00;58.50;;;;;;5007689;28;114055;-78
2023/05/26 10:56:14;;;;;;;32.35;28.65;;;19.10;58.50;;;;;;4986299;28;114593;-77
2023/05/26 10:58:48;;;;;;;32.67;29.17;;;19.20;58.00;;;;;;4982760;28;114913;-78
2023/05/26 11:01:26;;;;;;;33.60;26.98;;;19.30;57.90;;;;;;4985505;28;114866;-77
2023/05/26 11:04:08;;;;;;;30.63;27.33;;;19.30;57.80;;;;;;4992766;28;114628;-77
2023/05/26 11:06:48;;;;;;;28.85;25.83;;;19.40;57.40;;;;;;4998057;28;114217;-78
2023/05/26 11:09:16;;;;;;;25.63;22.90;;;19.40;57.70;;;;;;5001347;28;114913;-76
2023/05/26 11:12:01;;;;;;;27.60;24.55;;;19.30;57.40;;;;;;4991048;28;115175;-77
2023/05/26 11:14:29;;;;;;;25.20;22.02;;;19.30;56.80;;;;;;4987742;28;114155;-78
2023/05/26 11:16:58;;;;;;;28.17;25.15;;;19.30;57.00;;;;;;4996467;28;114327;-78
2023/05/26 11:19:32;;;;;;;29.77;24.17;;;19.20;57.70;;;;;;4984795;28;115987;-78
2023/05/26 11:22:00;;;;;;;25.55;22.75;;;19.20;57.60;;;;;;4979766;28;115651;-77
2023/05/26 11:24:27;;;;;;;30.83;23.38;;;19.00;58.00;;;;;;4983900;28;114671;-77
2023/05/26 11:26:55;;;;;;;28.65;24.73;;;18.90;58.30;;;;;;5001122;28;114305;-77
2023/05/26 11:29:23;;;;;;;25.35;22.77;;;18.80;58.40;;;;;;4977020;28;114887;-78
2023/05/26 11:31:51;;;;;;;22.73;20.33;;;18.70;58.40;;;;;;4976933;28;115404;-78
2023/05/26 11:34:18;;;;;;;24.83;21.75;;;18.70;58.20;;;;;;4981961;28;114511;-77
2023/05/26 11:36:47;;;;;;;24.33;21.48;;;18.60;58.70;;;;;;4978207;28;115684;-78
2023/05/26 11:39:15;;;;;;;24.42;21.02;;;18.60;58.90;;;;;;4981613;28;115516;-77
2023/05/26 11:41:42;;;;;;;24.35;21.77;;;18.50;58.70;;;;;;4978338;28;116237;-78
2023/05/26 11:44:12;;;;;;;25.60;21.95;;;18.50;58.60;;;;;;4979240;28;114592;-78
2023/05/26 11:46:40;;;;;;;29.25;23.30;;;18.50;59.00;;;;;;4962109;28;115420;-79
2023/05/26 11:49:14;;;;;;;26.20;22.75;;;18.50;59.20;;;;;;4978841;28;117519;-78
2023/05/26 11:51:45;;;;;;;;;;;18.60;58.80;;;;;;4967152;28;114756;-76
2023/05/26 11:54:15;;;;;;;30.55;24.15;;;18.50;58.80;;;;;;4983218;28;114452;-78
2023/05/26 11:56:44;;;;;;;36.35;24.58;;;18.50;59.40;;;;;;4991336;28;115644;-77
2023/05/26 11:59:16;;;;;;;26.25;21.25;;;18.50;59.40;;;;;;4978327;28;114980;-78
2023/05/26 12:01:43;;;;;;;28.55;19.95;;;18.70;58.90;;;;;;4975568;28;115769;-78
2023/05/26 12:04:10;;;;;;;24.02;19.42;;;18.70;59.00;;;;;;4967942;28;115590;-78
2023/05/26 12:06:40;;;;;;;27.75;19.42;;;18.80;59.00;;;;;;4984006;28;114548;-78
2023/05/26 12:09:18;;;;;;;23.08;19.27;;;18.80;59.10;;;;;;4978497;28;115522;-78
2023/05/26 12:11:47;;;;;;;22.30;16.95;;;18.80;58.60;;;;;;4979606;28;114717;-77
2023/05/26 12:14:14;;;;;;;17.95;15.50;;;18.80;58.30;;;;;;4998112;28;114338;-78
2023/05/26 12:16:43;;;;;;;22.92;14.75;;;18.80;58.30;;;;;;4966416;28;114553;-78
2023/05/26 12:19:11;;;;;;;16.23;13.75;;;18.80;58.00;;;;;;4978718;28;114817;-78
2023/05/26 12:21:43;;;;;;;20.17;15.05;;;18.70;57.80;;;;;;4973007;28;114671;-77
2023/05/26 12:24:10;;;;;;;20.27;13.60;;;18.70;57.80;;;;;;4974812;28;114441;-76
2023/05/26 12:26:38;;;;;;;18.25;13.68;;;18.70;57.90;;;;;;4993971;28;114579;-78
2023/05/26 12:29:15;;;;;;;18.17;13.70;;;18.70;57.60;;;;;;4993931;28;117106;-78
2023/05/26 12:31:50;;;;;;;21.63;14.02;;;18.70;58.10;;;;;;4971044;28;115636;-77